createdAt,value
2024-02-15T00:08:35.804Z,3.15
2024-02-15T00:13:37.855Z,3.22
2024-02-15T00:18:40.793Z,3.65
2024-02-15T00:23:43.784Z,5.68
2024-02-15T00:28:45.644Z,5.22
2024-02-15T00:33:47.869Z,4.72
2024-02-15T00:38:50.258Z,4.80
2024-02-15T00:43:52.131Z,7.93
2024-02-15T00:48:54.080Z,12.27
2024-02-15T00:53:55.968Z,6.13
2024-02-15T00:58:58.131Z,3.55
2024-02-15T01:03:59.928Z,5.35
2024-02-15T01:09:03.405Z,5.00
2024-02-15T01:14:05.317Z,6.13
2024-02-15T01:19:07.196Z,4.93
2024-02-15T01:24:09.007Z,4.07
2024-02-15T01:29:13.420Z,3.45
2024-02-15T01:34:15.405Z,1.98
2024-02-15T01:39:17.668Z,3.70
2024-02-15T01:44:22.787Z,5.57
2024-02-15T01:49:25.895Z,6.78
2024-02-15T01:54:28.679Z,3.92
2024-02-15T01:59:31.823Z,5.07
2024-02-15T02:04:33.624Z,6.00
2024-02-15T02:09:35.685Z,2.80
2024-02-15T02:14:37.470Z,5.85
2024-02-15T02:19:39.866Z,5.30
2024-02-15T02:24:56.616Z,3.17
2024-02-15T02:30:00.669Z,6.22
2024-02-15T02:35:03.237Z,3.58
2024-02-15T02:40:09.751Z,7.68
2024-02-15T02:45:11.587Z,4.60
2024-02-15T02:50:13.844Z,3.20
2024-02-15T02:55:57.306Z,3.90
2024-02-15T03:01:01.695Z,4.45
2024-02-15T03:06:04.029Z,5.40
2024-02-15T03:11:05.860Z,5.15
2024-02-15T03:16:07.544Z,4.15
2024-02-15T03:21:12.013Z,3.15
2024-02-15T03:26:14.068Z,3.08
2024-02-15T03:31:16.129Z,5.13
2024-02-15T03:36:21.219Z,4.78
2024-02-15T03:41:23.686Z,2.92
2024-02-15T03:46:25.455Z,5.20
2024-02-15T03:51:27.238Z,6.20
2024-02-15T03:56:29.384Z,3.85
2024-02-15T04:01:35.228Z,5.55
2024-02-15T04:06:37.626Z,5.32
2024-02-15T04:11:39.765Z,6.38
2024-02-15T04:16:41.740Z,6.05
2024-02-15T04:21:45.187Z,3.28
2024-02-15T04:26:49.497Z,5.10
2024-02-15T04:31:51.479Z,4.25
2024-02-15T04:36:56.868Z,7.10
2024-02-15T04:41:58.729Z,4.15
2024-02-15T04:47:00.539Z,5.53
2024-02-15T04:52:05.308Z,4.38
2024-02-15T04:57:09.938Z,4.60
2024-02-15T05:02:12.628Z,4.32
2024-02-15T05:07:18.094Z,4.22
2024-02-15T05:12:25.493Z,6.93
2024-02-15T05:17:31.085Z,3.72
2024-02-15T05:22:34.012Z,4.35
2024-02-15T05:27:37.195Z,5.32
2024-02-15T05:32:43.081Z,3.70
2024-02-15T05:37:45.260Z,3.40
2024-02-15T05:42:47.512Z,6.95
2024-02-15T05:47:49.418Z,3.53
2024-02-15T05:52:54.271Z,4.65
2024-02-15T05:57:56.119Z,3.55
2024-02-15T06:02:58.042Z,6.20
2024-02-15T06:08:00.108Z,4.47
2024-02-15T06:13:02.081Z,6.00
2024-02-15T06:18:10.568Z,2.65
2024-02-15T06:23:12.680Z,5.22
2024-02-15T06:28:20.946Z,3.83
2024-02-15T06:33:41.192Z,6.03
2024-02-15T06:39:01.578Z,8.70
2024-02-15T06:44:05.603Z,5.25
2024-02-15T06:49:07.672Z,3.80
2024-02-15T06:54:09.530Z,6.90
2024-02-15T06:59:11.679Z,4.68
2024-02-15T07:04:13.547Z,5.50
2024-02-15T07:09:22.786Z,5.75
2024-02-15T07:14:24.662Z,3.80
2024-02-15T07:19:28.894Z,7.05
2024-02-15T07:24:31.137Z,4.72
2024-02-15T07:29:33.766Z,6.55
2024-02-15T07:34:35.696Z,5.90
2024-02-15T07:39:37.804Z,5.40
2024-02-15T07:44:39.694Z,2.65
2024-02-15T07:49:43.076Z,5.82
2024-02-15T07:54:45.174Z,5.28
2024-02-15T07:59:49.447Z,3.40
2024-02-15T08:04:51.729Z,4.90
2024-02-15T08:09:56.065Z,6.35
2024-02-15T08:14:59.390Z,4.95
2024-02-15T08:20:01.352Z,3.63
2024-02-15T08:25:06.086Z,4.43
2024-02-15T08:30:10.475Z,3.83
2024-02-15T08:35:14.267Z,2.95
2024-02-15T08:40:16.716Z,5.75
2024-02-15T08:45:18.581Z,2.88
2024-02-15T08:50:22.486Z,4.88
2024-02-15T08:55:28.410Z,7.38
2024-02-15T09:00:30.296Z,5.93
2024-02-15T09:05:32.129Z,6.13
2024-02-15T09:10:34.053Z,8.02
2024-02-15T09:15:36.732Z,4.70
2024-02-15T09:20:41.476Z,5.00
2024-02-15T09:25:46.095Z,6.80
2024-02-15T09:30:48.554Z,5.45
2024-02-15T09:35:50.427Z,5.45
2024-02-15T09:40:52.692Z,6.75
2024-02-15T09:45:54.426Z,3.25
2024-02-15T09:50:57.660Z,5.53
2024-02-15T09:56:05.549Z,3.35
2024-02-15T10:01:11.456Z,4.18
2024-02-15T10:06:13.808Z,5.55
2024-02-15T10:11:17.290Z,4.63
2024-02-15T10:16:20.659Z,4.90
2024-02-15T10:21:34.819Z,3.88
2024-02-15T10:26:37.638Z,5.22
2024-02-15T10:31:42.898Z,3.20
2024-02-15T10:36:45.020Z,5.50
2024-02-15T10:41:52.619Z,5.80
2024-02-15T10:46:54.817Z,3.17
2024-02-15T10:52:05.341Z,4.70
2024-02-15T10:57:07.712Z,2.65
2024-02-15T11:02:31.197Z,2.08
2024-02-15T11:07:33.854Z,2.65
2024-02-15T11:12:36.783Z,3.28
2024-02-15T11:17:51.869Z,3.35
2024-02-15T11:23:01.032Z,3.35
2024-02-15T11:28:41.996Z,5.17
2024-02-15T11:33:44.614Z,2.70
2024-02-15T11:38:46.478Z,2.50
2024-02-15T11:43:51.354Z,5.38
2024-02-15T11:48:57.994Z,3.17
2024-02-15T11:54:07.576Z,4.68
2024-02-15T11:59:09.443Z,3.58
2024-02-15T12:04:29.913Z,6.85
2024-02-15T12:09:50.575Z,2.72
2024-02-15T12:15:19.233Z,2.33
2024-02-15T12:20:26.619Z,2.73
2024-02-15T12:25:28.769Z,4.78
2024-02-15T12:30:37.901Z,4.80
2024-02-15T12:35:40.516Z,3.22
2024-02-15T12:40:44.586Z,3.22
2024-02-15T12:45:48.387Z,2.35
2024-02-15T12:50:50.467Z,2.80
2024-02-15T12:55:56.422Z,5.60
2024-02-15T13:01:00.129Z,3.40
2024-02-15T13:06:02.226Z,4.32
2024-02-15T13:11:04.791Z,4.35
2024-02-15T13:16:07.481Z,4.72
2024-02-15T13:21:11.665Z,2.90
2024-02-15T13:26:15.764Z,3.78
2024-02-15T13:31:17.649Z,4.88
2024-02-15T13:36:21.221Z,2.90
2024-02-15T13:41:23.117Z,5.63
2024-02-15T13:46:25.706Z,3.40
2024-02-15T13:51:27.546Z,4.32
2024-02-15T13:56:29.343Z,5.18
2024-02-15T14:01:31.102Z,2.45
2024-02-15T14:06:33.145Z,2.50
2024-02-15T14:11:35.094Z,3.13
2024-02-15T14:16:36.873Z,4.80
2024-02-15T14:21:39.868Z,2.78
2024-02-15T14:26:41.997Z,4.68
2024-02-15T14:32:02.057Z,3.13
2024-02-15T14:37:07.123Z,4.63
2024-02-15T14:47:13.645Z,3.65
2024-02-15T14:52:16.074Z,3.17
2024-02-15T14:57:20.715Z,5.03
2024-02-15T15:02:23.431Z,2.30
2024-02-15T15:07:43.496Z,4.85
2024-02-15T15:12:46.843Z,3.10
2024-02-15T15:17:48.683Z,4.18
2024-02-15T15:22:50.804Z,2.95
2024-02-15T15:27:52.986Z,4.28
2024-02-15T15:32:54.985Z,2.67
2024-02-15T15:38:00.290Z,2.50
2024-02-15T15:43:03.774Z,3.85
2024-02-15T15:48:07.299Z,4.05
2024-02-15T15:53:11.175Z,3.92
2024-02-15T15:58:13.125Z,4.28
2024-02-15T16:03:15.533Z,4.57
2024-02-15T16:08:17.259Z,4.20
2024-02-15T16:13:21.314Z,2.83
2024-02-15T16:18:24.650Z,4.32
2024-02-15T16:23:27.059Z,3.67
2024-02-15T16:28:28.828Z,9.77
2024-02-15T16:33:30.745Z,2.83
2024-02-15T16:38:34.224Z,2.60
2024-02-15T16:43:36.841Z,4.55
2024-02-15T16:48:38.718Z,4.18
2024-02-15T16:53:40.814Z,4.03
2024-02-15T16:58:42.681Z,4.30
2024-02-15T17:03:44.688Z,3.47
2024-02-15T17:08:47.375Z,3.67
2024-02-15T17:13:50.115Z,5.15
2024-02-15T17:18:52.376Z,3.75
2024-02-15T17:23:54.548Z,3.42
2024-02-15T17:28:58.351Z,3.85
2024-02-15T17:34:00.274Z,4.20
2024-02-15T17:39:02.533Z,4.53
2024-02-15T17:44:05.016Z,7.25
2024-02-15T17:49:06.946Z,11.40
2024-02-15T17:54:09.079Z,12.77
2024-02-15T17:59:12.261Z,10.55
2024-02-15T18:04:14.149Z,12.18
2024-02-15T18:09:15.921Z,8.68
2024-02-15T18:14:17.891Z,8.60
2024-02-15T18:19:21.039Z,7.18
2024-02-15T18:24:23.078Z,7.70
2024-02-15T18:29:28.036Z,10.77
2024-02-15T18:34:29.985Z,10.30
2024-02-15T18:39:32.549Z,10.35
2024-02-15T18:44:34.452Z,6.93
2024-02-15T18:49:41.158Z,4.90
2024-02-15T18:54:45.797Z,9.07
2024-02-15T18:59:47.633Z,7.43
2024-02-15T19:04:50.417Z,4.30
2024-02-15T19:09:52.255Z,6.90
2024-02-15T19:14:54.615Z,8.50
2024-02-15T19:19:56.435Z,6.07
2024-02-15T19:24:58.274Z,9.77
2024-02-15T19:30:00.637Z,10.75
2024-02-15T19:35:02.785Z,6.95
2024-02-15T19:40:08.949Z,7.63
2024-02-15T19:45:10.971Z,9.02
2024-02-15T19:50:16.300Z,7.80
2024-02-15T19:55:18.238Z,11.95
2024-02-15T20:00:20.637Z,6.20
2024-02-15T20:05:25.136Z,6.75
2024-02-15T20:10:26.994Z,7.00
2024-02-15T20:15:30.682Z,7.90
2024-02-15T20:20:34.162Z,7.60
2024-02-15T20:25:36.077Z,7.15
2024-02-15T20:30:39.272Z,8.45
2024-02-15T20:35:44.421Z,11.95
2024-02-15T20:40:46.189Z,10.23
2024-02-15T20:45:48.203Z,8.60
2024-02-15T20:50:51.815Z,9.05
2024-02-15T20:55:53.652Z,7.78
2024-02-15T21:00:56.188Z,6.20
2024-02-15T21:05:58.095Z,5.63
2024-02-15T21:11:01.173Z,5.45
2024-02-15T21:16:05.464Z,6.05
2024-02-15T21:21:10.393Z,8.15
2024-02-15T21:26:12.542Z,8.50
2024-02-15T21:31:17.157Z,8.82
2024-02-15T21:36:19.940Z,7.43
2024-02-15T21:41:22.387Z,7.97
2024-02-15T21:46:24.269Z,8.80
2024-02-15T21:51:26.288Z,8.32
2024-02-15T21:56:28.461Z,7.32
2024-02-15T22:01:32.549Z,7.82
2024-02-15T22:06:34.818Z,9.80
2024-02-15T22:11:36.730Z,12.30
2024-02-15T22:16:38.752Z,12.02
2024-02-15T22:21:40.565Z,10.95
2024-02-15T22:26:42.424Z,8.85
2024-02-15T22:31:45.495Z,6.28
2024-02-15T22:36:47.392Z,6.32
2024-02-15T22:41:51.065Z,7.95
2024-02-15T22:46:55.939Z,7.68
2024-02-15T22:51:58.159Z,8.60
2024-02-15T22:57:00.031Z,8.50
2024-02-15T23:02:01.835Z,8.43
2024-02-15T23:07:05.477Z,10.60
2024-02-15T23:12:07.686Z,7.03
2024-02-15T23:17:11.943Z,9.63
2024-02-15T23:22:14.854Z,9.75
2024-02-15T23:27:17.069Z,7.72
2024-02-15T23:32:18.934Z,8.73
2024-02-15T23:37:39.252Z,13.73
2024-02-15T23:42:41.037Z,9.98
2024-02-15T23:47:43.082Z,11.23
2024-02-15T23:52:46.732Z,11.38
2024-02-15T23:57:48.584Z,9.90
